Pasto, Colombia

8:57 AM COT on March 30, 2015 (GMT -0500)
Antonio Narino | | Change Station
CLOSE
Current Station
Airport
Location: Pasto,
Elevation: 5948 ft
Nearby Weather Stations

Elev 5948 ft 1.39 °N, 77.29 °W | Updated 57 minutes ago

Patches of Fog
Patches Fog
61 °F
Feels Like 61 °F
N
0
Wind Variable Wind from North

Today
High -- | Low -- °F
--% Chance of Precip.
Yesterday
High -- | Low -- °F
Precip. -- in
6:09 AM 6:17 PM
Waxing Gibbous, 80% visible
Pressure 30.27 in
Visibility 5.0 miles
Clouds Mostly Cloudy 1000 ft
Dew Point 61 °F
Humidity 100%
Rainfall 0.00 in
Snow Depth Not available.
UV 2 out of 12
Pollen Not available.
Air Quality Not available.
Flu Activity Not available.
METAR SKPS 301300Z 00000KT 8000 2000N BCFG BKN010 16/16 A3027

More Conditions Fewer Conditions

Pressure 30.27 in
Visibility 5.0 miles
Clouds Mostly Cloudy 1000 ft
Dew Point 61 °F
Humidity 100%
Rainfall 0.00 in
Snow Depth Not available.
UV 2 out of 12
Pollen Not available.
Air Quality Not available.
Flu Activity Not available.
METAR SKPS 301300Z 00000KT 8000 2000N BCFG BKN010 16/16 A3027

More Conditions Fewer Conditions

10-Day Weather Forecast

Almanac

Astronomy

Mar. 30, 2015 Rise Set
Actual Time
Civil Twilight
Nautical Twilight
Astronomical Twilight
Moon
Length of Visible Light
Length of Day
Tomorrow will be .
, % of the Moon is Illuminated

Today's Extremes

Country Highs Country Lows

Community

WunderPhotos

Upload Photos

1,809,493 photos uploaded!

WunderBlogs® & News

Nearby

Air Quality

  Air Quality AQ Index Pollutant
Not available.

Snow Depth

Station Depth Elevation

Earthquake Activity

City Distance Mag. Time & Date
Minimum magnitude displayed is 2.5.

Coastal Water Temperatures

Place Temperature

Stations

Nearby Weather Stations

Station Location Temp. Windchill Dew Point Humidity Wind Precip. Elev Updated Type